createdAt,value
2023-01-25T00:02:54.572Z,12.00
2023-01-25T00:07:58.249Z,12.30
2023-01-25T00:13:01.805Z,12.50
2023-01-25T00:18:05.273Z,11.00
2023-01-25T00:23:09.300Z,12.57
2023-01-25T00:28:13.713Z,11.73
2023-01-25T00:33:17.545Z,10.60
2023-01-25T00:38:35.092Z,11.07
2023-01-25T00:43:38.350Z,11.07
2023-01-25T00:48:42.122Z,12.07
2023-01-25T00:53:45.762Z,12.67
2023-01-25T00:58:49.205Z,12.60
2023-01-25T01:03:53.053Z,13.27
2023-01-25T01:08:56.533Z,12.17
2023-01-25T01:14:00.875Z,11.97
2023-01-25T01:19:06.479Z,11.43
2023-01-25T01:24:11.846Z,11.87
2023-01-25T01:29:15.788Z,11.90
2023-01-25T01:34:19.539Z,13.73
2023-01-25T01:39:23.313Z,10.93
2023-01-25T01:44:51.366Z,12.40
2023-01-25T01:50:02.713Z,13.13
2023-01-25T01:55:11.084Z,12.93
2023-01-25T02:00:20.029Z,12.03
2023-01-25T02:05:37.459Z,12.37
2023-01-25T02:10:43.326Z,12.13
2023-01-25T02:15:54.495Z,13.50
2023-01-25T02:21:00.548Z,12.80
2023-01-25T02:26:08.075Z,13.03
2023-01-25T02:31:12.128Z,13.60
2023-01-25T02:36:26.747Z,11.87
2023-01-25T02:41:38.449Z,11.40
2023-01-25T02:46:43.593Z,12.90
2023-01-25T02:51:50.104Z,11.90
2023-01-25T02:56:53.788Z,12.67
2023-01-25T03:01:57.376Z,12.13
2023-01-25T03:07:01.048Z,12.70
2023-01-25T03:12:04.836Z,12.07
2023-01-25T03:17:08.302Z,10.57
2023-01-25T03:22:12.327Z,10.93
2023-01-25T03:27:18.077Z,10.43
2023-01-25T03:32:21.822Z,11.30
2023-01-25T03:37:31.089Z,11.20
2023-01-25T03:42:34.940Z,12.17
2023-01-25T03:47:38.582Z,11.93
2023-01-25T03:52:46.096Z,11.47
2023-01-25T03:57:50.657Z,9.07
2023-01-25T04:02:54.327Z,9.87
2023-01-25T04:07:57.912Z,8.07
2023-01-25T04:13:01.486Z,10.37
2023-01-25T04:18:05.148Z,9.10
2023-01-25T04:23:09.833Z,9.70
2023-01-25T04:28:13.449Z,9.13
2023-01-25T04:33:17.621Z,9.10
2023-01-25T04:38:21.521Z,9.67
2023-01-25T04:43:26.989Z,10.27
2023-01-25T04:48:31.097Z,9.33
2023-01-25T04:53:34.697Z,10.97
2023-01-25T04:58:38.495Z,9.30
2023-01-25T05:03:42.290Z,9.37
2023-01-25T05:08:45.989Z,10.67
2023-01-25T05:13:49.546Z,9.67
2023-01-25T05:18:55.321Z,9.70
2023-01-25T05:23:58.774Z,9.27
2023-01-25T05:29:02.488Z,9.33
2023-01-25T05:34:05.749Z,10.57
2023-01-25T05:39:11.926Z,10.00
2023-01-25T05:44:16.270Z,11.20
2023-01-25T05:49:20.726Z,10.33
2023-01-25T05:54:24.659Z,10.50
2023-01-25T05:59:28.437Z,9.70
2023-01-25T06:04:32.432Z,9.33
2023-01-25T06:09:35.780Z,9.23
2023-01-25T06:14:39.482Z,9.00
2023-01-25T06:19:42.829Z,9.07
2023-01-25T06:24:46.473Z,11.63
2023-01-25T06:29:51.189Z,12.57
2023-01-25T06:34:54.760Z,9.43
2023-01-25T06:39:58.474Z,8.23
2023-01-25T06:45:02.087Z,8.90
2023-01-25T06:50:06.138Z,8.37
2023-01-25T06:55:14.517Z,7.93
2023-01-25T07:00:18.701Z,7.33
2023-01-25T07:05:24.527Z,7.57
2023-01-25T07:10:28.237Z,8.10
2023-01-25T07:15:31.822Z,7.40
2023-01-25T07:20:35.658Z,6.67
2023-01-25T07:25:45.971Z,6.60
2023-01-25T07:30:49.952Z,6.47
2023-01-25T07:35:53.590Z,7.00
2023-01-25T07:40:57.541Z,6.80
2023-01-25T07:46:03.947Z,6.73
2023-01-25T07:51:13.214Z,7.67
2023-01-25T07:56:16.982Z,7.60
2023-01-25T08:01:22.638Z,7.17
2023-01-25T08:06:31.186Z,7.33
2023-01-25T08:11:35.128Z,6.93
2023-01-25T08:16:38.935Z,8.10
2023-01-25T08:21:42.796Z,6.97
2023-01-25T08:26:46.832Z,7.83
2023-01-25T08:31:50.510Z,7.53
2023-01-25T08:36:53.824Z,6.60
2023-01-25T08:41:57.335Z,7.77
2023-01-25T08:47:00.960Z,7.47
2023-01-25T08:52:05.171Z,7.87
2023-01-25T08:57:08.797Z,8.93
2023-01-25T09:02:15.245Z,9.07
2023-01-25T09:07:19.320Z,9.87
2023-01-25T09:12:23.442Z,10.13
2023-01-25T09:17:26.850Z,10.03
2023-01-25T09:22:31.892Z,11.47
2023-01-25T09:27:35.407Z,11.93
2023-01-25T09:32:39.965Z,10.13
2023-01-25T09:37:43.953Z,9.87
2023-01-25T09:43:00.663Z,8.73
2023-01-25T09:48:23.526Z,9.13
2023-01-25T09:53:34.605Z,9.97
2023-01-25T09:58:46.899Z,9.33
2023-01-25T10:04:03.167Z,9.07
2023-01-25T10:09:17.279Z,10.00
2023-01-25T10:14:22.447Z,7.60
2023-01-25T10:19:31.999Z,8.67
2023-01-25T10:25:02.896Z,9.27
2023-01-25T10:30:37.170Z,11.10
2023-01-25T10:35:48.298Z,8.87
2023-01-25T10:41:13.028Z,8.67
2023-01-25T10:46:27.400Z,8.77
2023-01-25T10:51:37.997Z,8.83
2023-01-25T10:56:43.434Z,8.67
2023-01-25T11:01:47.404Z,9.90
2023-01-25T11:06:52.300Z,8.77
2023-01-25T11:11:59.895Z,9.33
2023-01-25T11:17:06.578Z,10.27
2023-01-25T11:22:19.422Z,10.73
2023-01-25T11:27:29.259Z,10.90
2023-01-25T11:32:33.646Z,10.17
2023-01-25T11:37:52.469Z,10.30
2023-01-25T11:43:11.097Z,10.17
2023-01-25T11:48:47.848Z,11.07
2023-01-25T11:54:07.919Z,10.87
2023-01-25T11:59:46.892Z,13.03
2023-01-25T12:05:21.760Z,12.50
2023-01-25T12:10:52.928Z,11.13
2023-01-25T12:16:09.305Z,11.10
2023-01-25T12:21:26.360Z,12.50
2023-01-25T12:26:46.473Z,11.87
2023-01-25T12:32:41.059Z,11.40
2023-01-25T12:37:47.452Z,11.33
2023-01-25T12:42:59.983Z,11.80
2023-01-25T12:48:14.314Z,13.37
2023-01-25T12:53:26.638Z,13.40
2023-01-25T12:58:38.095Z,13.13
2023-01-25T13:04:29.756Z,13.40
2023-01-25T13:10:02.787Z,12.73
2023-01-25T13:15:40.191Z,13.50
2023-01-25T13:20:50.052Z,13.33
2023-01-25T13:25:54.265Z,13.10
2023-01-25T13:30:58.261Z,12.40
2023-01-25T13:36:45.658Z,11.57
2023-01-25T13:42:00.771Z,14.27
2023-01-25T13:47:07.068Z,13.17
2023-01-25T13:52:22.068Z,15.83
2023-01-25T13:57:28.509Z,13.03
2023-01-25T14:02:32.486Z,14.90
2023-01-25T14:07:37.814Z,14.70
2023-01-25T14:12:44.206Z,14.87
2023-01-25T14:17:48.187Z,14.97
2023-01-25T14:22:52.339Z,14.50
2023-01-25T14:28:07.199Z,14.47
2023-01-25T14:33:34.270Z,12.73
2023-01-25T14:38:40.390Z,14.13
2023-01-25T14:43:55.626Z,15.73
2023-01-25T14:49:14.301Z,16.70
2023-01-25T14:54:22.180Z,14.67
2023-01-25T14:59:37.165Z,14.97
2023-01-25T15:04:40.614Z,14.20
2023-01-25T15:10:22.041Z,14.33
2023-01-25T15:15:28.661Z,14.87
2023-01-25T15:20:38.153Z,13.67
2023-01-25T15:25:56.418Z,13.60
2023-01-25T15:31:00.621Z,15.30
2023-01-25T15:36:04.116Z,14.60
2023-01-25T15:41:07.999Z,14.83
2023-01-25T15:46:26.147Z,14.80
2023-01-25T15:51:35.607Z,13.63
2023-01-25T15:56:43.572Z,15.80
2023-01-25T16:01:48.541Z,15.27
2023-01-25T16:06:55.813Z,17.07
2023-01-25T16:12:02.160Z,15.17
2023-01-25T16:17:06.087Z,14.60
2023-01-25T16:22:11.686Z,14.23
2023-01-25T16:27:21.179Z,15.10
2023-01-25T16:32:26.938Z,14.43
2023-01-25T16:37:32.093Z,16.17
2023-01-25T16:42:36.131Z,14.10
2023-01-25T16:47:41.296Z,13.83
2023-01-25T16:52:46.481Z,12.57
2023-01-25T16:57:52.912Z,13.23
2023-01-25T17:03:00.044Z,14.77
2023-01-25T17:08:05.148Z,13.67
2023-01-25T17:13:10.921Z,12.60
2023-01-25T17:18:16.890Z,14.17
2023-01-25T17:23:23.069Z,14.60
2023-01-25T17:28:28.450Z,13.40
2023-01-25T17:33:36.123Z,13.57
2023-01-25T17:38:46.049Z,15.20
2023-01-25T17:43:54.575Z,15.57
2023-01-25T17:49:00.371Z,15.03
2023-01-25T17:54:07.098Z,15.60
2023-01-25T17:59:15.413Z,15.80
2023-01-25T18:04:24.423Z,17.17
2023-01-25T18:09:33.701Z,15.00
2023-01-25T18:14:40.249Z,14.77
2023-01-25T18:19:48.317Z,14.83
2023-01-25T18:24:54.904Z,15.27
2023-01-25T18:30:07.209Z,16.13
2023-01-25T18:35:17.186Z,15.33
2023-01-25T18:40:22.847Z,17.07
2023-01-25T18:45:31.106Z,14.97
2023-01-25T18:50:46.720Z,15.23
2023-01-25T18:56:21.753Z,16.53
2023-01-25T19:01:32.752Z,15.03
2023-01-25T19:06:39.409Z,15.70
2023-01-25T19:11:51.745Z,16.17
2023-01-25T19:16:59.378Z,16.07
2023-01-25T19:22:06.410Z,15.43
2023-01-25T19:27:15.262Z,17.40
2023-01-25T19:32:26.790Z,14.00
2023-01-25T19:37:35.439Z,15.50
2023-01-25T19:42:42.701Z,17.13
2023-01-25T19:47:48.237Z,15.40
2023-01-25T19:52:59.103Z,15.80
2023-01-25T19:58:08.511Z,14.33
2023-01-25T20:03:16.852Z,15.00
2023-01-25T20:08:26.430Z,15.17
2023-01-25T20:13:32.773Z,15.63
2023-01-25T20:18:41.178Z,13.97
2023-01-25T20:23:50.427Z,15.20
2023-01-25T20:28:59.652Z,15.53
2023-01-25T20:34:31.169Z,15.30
2023-01-25T20:39:38.511Z,15.77
2023-01-25T20:44:48.109Z,16.40
2023-01-25T20:55:14.379Z,15.67
2023-01-25T21:00:20.202Z,14.33
2023-01-25T21:05:27.700Z,14.90
2023-01-25T21:10:33.489Z,15.53
2023-01-25T21:15:39.795Z,16.33
2023-01-25T21:20:48.789Z,16.23
2023-01-25T21:25:55.543Z,15.50
2023-01-25T21:31:01.178Z,19.30
2023-01-25T21:36:09.943Z,17.77
2023-01-25T21:41:22.829Z,19.50
2023-01-25T21:46:29.589Z,19.37
2023-01-25T21:51:40.670Z,19.70
2023-01-25T21:56:46.866Z,16.70
2023-01-25T22:01:51.697Z,17.13
2023-01-25T22:06:57.088Z,15.97
2023-01-25T22:12:02.264Z,15.83
2023-01-25T22:17:06.290Z,17.20
2023-01-25T22:22:10.037Z,17.20
2023-01-25T22:27:37.672Z,15.83
2023-01-25T22:32:41.438Z,16.57
2023-01-25T22:37:45.083Z,17.33
2023-01-25T22:42:48.604Z,18.23
2023-01-25T22:47:54.443Z,17.73
2023-01-25T22:52:58.507Z,19.07
2023-01-25T22:58:02.408Z,17.93
2023-01-25T23:03:06.206Z,17.67
2023-01-25T23:08:10.289Z,18.33
2023-01-25T23:13:13.759Z,17.07
2023-01-25T23:18:35.915Z,17.63
2023-01-25T23:23:40.036Z,18.00
2023-01-25T23:28:44.484Z,17.83
2023-01-25T23:33:53.360Z,18.57
2023-01-25T23:38:57.552Z,17.83
2023-01-25T23:44:01.974Z,16.97
2023-01-25T23:49:05.629Z,17.60
2023-01-25T23:54:09.345Z,17.57
2023-01-25T23:59:12.639Z,16.97
